createdAt,value
2018-07-12T00:01:59.724Z,100733.09
2018-07-12T00:04:27.925Z,100734.41
2018-07-12T00:06:55.293Z,100723.53
2018-07-12T00:09:22.588Z,100731.14
2018-07-12T00:11:50.576Z,100729.59
2018-07-12T00:14:17.910Z,100728.33
2018-07-12T00:16:45.218Z,100737.18
2018-07-12T00:19:12.512Z,100736.82
2018-07-12T00:21:39.804Z,100734.82
2018-07-12T00:24:07.081Z,100733.55
2018-07-12T00:26:34.949Z,100732.92
2018-07-12T00:29:03.804Z,100738.16
2018-07-12T00:31:31.113Z,100748.13
2018-07-12T00:33:58.399Z,100742.32
2018-07-12T00:36:25.686Z,100742.32
2018-07-12T00:38:53.876Z,100737.96
2018-07-12T00:41:21.157Z,100745.14
2018-07-12T00:43:48.442Z,100751.38
2018-07-12T00:46:15.777Z,100748.30
2018-07-12T00:48:43.404Z,100747.47
2018-07-12T00:51:10.692Z,100749.40
2018-07-12T00:53:37.973Z,100750.46
2018-07-12T00:56:05.553Z,100750.10
2018-07-12T00:58:33.633Z,100749.31
2018-07-12T01:01:00.921Z,100745.09
2018-07-12T01:03:28.205Z,100746.05
2018-07-12T01:05:55.484Z,100747.37
2018-07-12T01:08:22.765Z,100748.58
2018-07-12T01:10:50.045Z,100745.09
2018-07-12T01:13:17.328Z,100744.78
2018-07-12T01:15:44.627Z,100738.87
2018-07-12T01:18:11.905Z,100741.36
2018-07-12T01:20:39.185Z,100738.50
2018-07-12T01:23:06.469Z,100747.64
2018-07-12T01:25:35.909Z,100736.00
2018-07-12T01:28:04.624Z,100743.48
2018-07-12T01:30:33.564Z,100744.27
2018-07-12T01:33:00.885Z,100736.00
2018-07-12T01:35:28.192Z,100733.70
2018-07-12T01:37:55.480Z,100734.69
2018-07-12T01:40:22.764Z,100739.58
2018-07-12T01:42:50.057Z,100736.63
2018-07-12T01:45:17.337Z,100727.72
2018-07-12T01:47:44.619Z,100731.16
2018-07-12T01:50:11.905Z,100728.86
2018-07-12T01:52:39.192Z,100730.68
2018-07-12T01:55:06.473Z,100732.41
2018-07-12T01:57:35.668Z,100733.09
2018-07-12T02:00:04.309Z,100728.09
2018-07-12T02:02:31.605Z,100730.35
2018-07-12T02:04:58.881Z,100727.41
2018-07-12T02:07:26.414Z,100724.55
2018-07-12T02:09:53.693Z,100723.12
2018-07-12T02:12:20.972Z,100728.91
2018-07-12T02:14:48.261Z,100718.80
2018-07-12T02:17:15.547Z,100720.84
2018-07-12T02:19:42.834Z,100715.05
2018-07-12T02:22:10.118Z,100714.69
2018-07-12T02:24:37.408Z,100704.09
2018-07-12T02:27:05.659Z,100703.81
2018-07-12T02:29:33.908Z,100706.02
2018-07-12T02:32:01.195Z,100693.75
2018-07-12T02:34:28.478Z,100690.00
2018-07-12T02:36:55.766Z,100693.27
2018-07-12T02:39:23.051Z,100692.05
2018-07-12T02:41:50.326Z,100681.55
2018-07-12T02:44:17.606Z,100679.22
2018-07-12T02:46:44.885Z,100677.90
2018-07-12T02:49:12.174Z,100677.02
2018-07-12T02:51:39.465Z,100670.27
2018-07-12T02:54:06.769Z,100673.27
2018-07-12T02:56:35.585Z,100668.66
2018-07-12T02:59:03.677Z,100665.05
2018-07-12T03:01:30.959Z,100665.14
2018-07-12T03:03:58.241Z,100659.19
2018-07-12T03:06:25.526Z,100655.83
2018-07-12T03:08:52.819Z,100650.72
2018-07-12T03:11:20.103Z,100656.83
2018-07-12T03:13:47.385Z,100655.16
2018-07-12T03:16:14.688Z,100665.37
2018-07-12T03:18:41.964Z,100665.05
2018-07-12T03:21:09.256Z,100661.91
2018-07-12T03:23:36.548Z,100665.23
2018-07-12T03:26:04.741Z,100653.73
2018-07-12T03:28:33.440Z,100648.53
2018-07-12T03:31:00.800Z,100646.30
2018-07-12T03:33:28.093Z,100647.41
2018-07-12T03:35:55.378Z,100645.77
2018-07-12T03:38:22.666Z,100641.67
2018-07-12T03:40:49.944Z,100636.67
2018-07-12T03:43:17.225Z,100640.03
2018-07-12T03:45:44.510Z,100631.77
2018-07-12T03:48:11.792Z,100630.77
2018-07-12T03:50:39.076Z,100627.82
2018-07-12T03:53:06.476Z,100625.61
2018-07-12T03:55:34.621Z,100622.01
2018-07-12T03:58:02.003Z,100619.97
2018-07-12T04:00:29.312Z,100615.17
2018-07-12T04:02:56.600Z,100613.84
2018-07-12T04:05:24.766Z,100611.30
2018-07-12T04:07:52.058Z,100614.61
2018-07-12T04:10:19.349Z,100607.52
2018-07-12T04:12:47.589Z,100619.42
2018-07-12T04:15:15.809Z,100610.33
2018-07-12T04:17:43.092Z,100613.78
2018-07-12T04:20:10.377Z,100610.62
2018-07-12T04:22:37.718Z,100602.51
2018-07-12T04:25:05.915Z,100598.40
2018-07-12T04:27:35.193Z,100594.09
2018-07-12T04:30:04.242Z,100587.05
2018-07-12T04:32:31.553Z,100588.67
2018-07-12T04:34:59.705Z,100586.57
2018-07-12T04:37:26.994Z,100580.62
2018-07-12T04:39:54.285Z,100583.45
2018-07-12T04:42:21.590Z,100583.10
2018-07-12T04:44:49.764Z,100583.86
2018-07-12T04:47:17.061Z,100585.46
2018-07-12T04:49:44.342Z,100589.97
2018-07-12T04:52:12.408Z,100578.59
2018-07-12T04:54:39.696Z,100576.65
2018-07-12T04:57:07.004Z,100571.33
2018-07-12T04:59:35.078Z,100572.54
2018-07-12T05:02:03.533Z,100557.34
2018-07-12T05:04:30.821Z,100546.88
2018-07-12T05:06:58.155Z,100543.48
2018-07-12T05:09:25.446Z,100547.28
2018-07-12T05:11:53.622Z,100538.17
2018-07-12T05:14:21.827Z,100535.63
2018-07-12T05:16:49.897Z,100526.41
2018-07-12T05:19:18.119Z,100525.96
2018-07-12T05:21:45.409Z,100525.37
2018-07-12T05:24:12.694Z,100525.05
2018-07-12T05:26:39.973Z,100513.86
2018-07-12T05:29:07.253Z,100517.12
2018-07-12T05:31:35.465Z,100507.55
2018-07-12T05:34:04.330Z,100496.17
2018-07-12T05:37:05.325Z,100483.44
2018-07-12T05:39:34.357Z,100481.34
2018-07-12T05:42:04.425Z,100472.05
2018-07-12T05:44:34.592Z,100474.33
2018-07-12T05:47:04.913Z,100460.69
2018-07-12T05:49:33.732Z,100456.26
2018-07-12T05:52:02.132Z,100453.75
2018-07-12T05:54:30.475Z,100453.06
2018-07-12T05:56:59.134Z,100473.02
2018-07-12T05:59:28.373Z,100465.08
2018-07-12T06:02:08.120Z,100469.14
2018-07-12T06:04:36.606Z,100440.19
2018-07-12T06:07:07.564Z,100432.01
2018-07-12T06:09:36.173Z,100416.41
2018-07-12T06:12:06.671Z,100410.70
2018-07-12T06:14:35.773Z,100401.09
2018-07-12T06:17:05.145Z,100397.73
2018-07-12T06:19:34.729Z,100391.27
2018-07-12T06:22:03.218Z,100403.51
2018-07-12T06:24:31.550Z,100420.42
2018-07-12T06:26:59.890Z,100420.97
2018-07-12T06:29:28.219Z,100423.70
2018-07-12T06:31:56.538Z,100432.89
2018-07-12T06:34:24.997Z,100444.16
2018-07-12T06:36:53.329Z,100456.47
2018-07-12T06:39:21.998Z,100457.47
2018-07-12T06:41:50.339Z,100459.84
2018-07-12T06:44:18.682Z,100478.80
2018-07-12T06:46:47.012Z,100487.23
2018-07-12T06:49:15.345Z,100487.04
2018-07-12T06:51:44.715Z,100489.20
2018-07-12T06:54:13.125Z,100495.12
2018-07-12T06:56:41.541Z,100486.05
2018-07-12T06:59:10.904Z,100493.33
2018-07-12T07:01:40.158Z,100493.48
2018-07-12T07:04:09.405Z,100495.61
2018-07-12T07:06:38.613Z,100499.43
2018-07-12T07:09:09.593Z,100497.00
2018-07-12T07:11:38.057Z,100498.30
2018-07-12T07:14:06.470Z,100494.64
2018-07-12T07:16:36.001Z,100505.86
2018-07-12T07:19:06.498Z,100513.41
2018-07-12T07:21:35.350Z,100509.44
2018-07-12T07:24:05.610Z,100506.91
2018-07-12T07:26:36.431Z,100505.14
2018-07-12T07:29:07.149Z,100507.80
2018-07-12T07:31:36.476Z,100510.44
2018-07-12T07:34:05.854Z,100513.05
2018-07-12T07:36:36.505Z,100519.75
2018-07-12T07:39:08.482Z,100520.12
2018-07-12T07:41:36.809Z,100507.65
2018-07-12T07:44:06.877Z,100505.64
2018-07-12T07:46:36.261Z,100495.74
2018-07-12T07:49:05.585Z,100503.22
2018-07-12T07:51:34.766Z,100510.53
2018-07-12T07:54:03.742Z,100511.75
2018-07-12T07:56:34.816Z,100511.84
2018-07-12T07:59:05.153Z,100516.10
2018-07-12T08:01:34.728Z,100514.13
2018-07-12T08:04:03.735Z,100517.43
2018-07-12T08:06:33.739Z,100516.22
2018-07-12T08:09:03.026Z,100515.31
2018-07-12T08:11:31.393Z,100517.53
2018-07-12T08:13:59.721Z,100514.65
2018-07-12T08:16:28.143Z,100507.22
2018-07-12T08:18:56.481Z,100512.87
2018-07-12T08:21:25.825Z,100505.95
2018-07-12T08:23:54.185Z,100514.22
2018-07-12T08:26:23.453Z,100512.89
2018-07-12T08:28:51.885Z,100516.88
2018-07-12T08:31:21.282Z,100519.19
2018-07-12T08:33:50.096Z,100524.32
2018-07-12T08:36:19.469Z,100528.59
2018-07-12T08:38:48.712Z,100527.77
2018-07-12T08:41:17.957Z,100527.74
2018-07-12T08:43:47.260Z,100527.25
2018-07-12T08:46:16.572Z,100525.70
2018-07-12T08:48:45.737Z,100523.45
2018-07-12T08:51:14.088Z,100539.99
2018-07-12T08:53:43.340Z,100534.86
2018-07-12T08:56:12.980Z,100532.71
2018-07-12T08:58:41.406Z,100537.67
2018-07-12T09:01:09.773Z,100529.70
2018-07-12T09:03:38.985Z,100539.02
2018-07-12T09:06:08.236Z,100539.02
2018-07-12T09:08:36.677Z,100543.00
2018-07-12T09:11:05.733Z,100544.84
2018-07-12T09:13:36.551Z,100536.05
2018-07-12T09:16:05.997Z,100546.33
2018-07-12T09:18:34.837Z,100553.59
2018-07-12T09:21:04.364Z,100548.31
2018-07-12T09:23:32.778Z,100548.32
2018-07-12T09:26:01.118Z,100551.60
2018-07-12T09:28:29.491Z,100558.23
2018-07-12T09:30:57.826Z,100558.19
2018-07-12T09:33:26.172Z,100560.89
2018-07-12T09:35:54.522Z,100563.50
2018-07-12T09:38:48.332Z,100561.36
2018-07-12T09:41:16.988Z,100565.65
2018-07-12T09:43:46.105Z,100568.48
2018-07-12T09:46:15.236Z,100570.13
2018-07-12T09:48:44.862Z,100565.51
2018-07-12T09:51:14.030Z,100565.00
2018-07-12T09:53:43.613Z,100568.16
2018-07-12T09:56:13.470Z,100571.80
2018-07-12T09:58:42.010Z,100575.77
2018-07-12T10:01:15.738Z,100569.47
2018-07-12T10:03:51.692Z,100570.59
2018-07-12T10:06:25.997Z,100579.11
2018-07-12T10:08:56.985Z,100578.09
2018-07-12T10:11:30.630Z,100582.01
2018-07-12T10:15:04.526Z,100579.17
2018-07-12T10:17:42.866Z,100586.74
2018-07-12T10:20:12.197Z,100583.78
2018-07-12T10:22:41.576Z,100581.13
2018-07-12T10:25:10.762Z,100586.14
2018-07-12T10:27:39.093Z,100586.44
2018-07-12T10:30:07.432Z,100592.87
2018-07-12T10:32:36.777Z,100590.58
2018-07-12T10:35:07.338Z,100595.28
2018-07-12T10:37:37.185Z,100596.77
2018-07-12T10:40:07.566Z,100593.19
2018-07-12T10:42:36.932Z,100594.32
2018-07-12T10:45:07.190Z,100600.81
2018-07-12T10:47:36.429Z,100593.61
2018-07-12T10:50:05.477Z,100609.00
2018-07-12T10:52:35.704Z,100608.38
2018-07-12T10:55:04.937Z,100615.50
2018-07-12T10:57:35.186Z,100611.53
2018-07-12T11:00:05.686Z,100607.88
2018-07-12T11:02:35.082Z,100617.30
2018-07-12T11:05:04.290Z,100623.56
2018-07-12T11:07:33.825Z,100637.27
2018-07-12T11:10:02.704Z,100628.38
2018-07-12T11:12:31.056Z,100632.16
2018-07-12T11:14:59.388Z,100631.25
2018-07-12T11:17:27.717Z,100636.53
2018-07-12T11:19:56.090Z,100631.06
2018-07-12T11:22:24.522Z,100639.75
2018-07-12T11:24:52.896Z,100643.59
2018-07-12T11:27:21.265Z,100643.94
2018-07-12T11:29:54.640Z,100648.89
2018-07-12T11:32:23.901Z,100646.77
2018-07-12T11:34:52.485Z,100637.01
2018-07-12T11:37:24.335Z,100648.53
2018-07-12T11:39:52.837Z,100655.50
2018-07-12T11:42:21.441Z,100657.14
2018-07-12T11:44:50.318Z,100657.48
2018-07-12T11:47:19.132Z,100655.20
2018-07-12T11:49:47.501Z,100654.73
2018-07-12T11:52:15.948Z,100662.16
2018-07-12T11:54:44.294Z,100654.88
2018-07-12T11:57:12.626Z,100658.85
2018-07-12T11:59:41.096Z,100657.30
2018-07-12T12:02:09.458Z,100663.62
2018-07-12T12:04:37.912Z,100663.09
2018-07-12T12:07:06.995Z,100661.98
2018-07-12T12:09:36.007Z,100668.25
2018-07-12T12:12:05.249Z,100664.10
2018-07-12T12:14:34.855Z,100665.42
2018-07-12T12:17:03.844Z,100668.07
2018-07-12T12:19:34.988Z,100674.73
2018-07-12T12:22:03.369Z,100677.39
2018-07-12T12:24:33.658Z,100681.22
2018-07-12T12:27:02.007Z,100670.14
2018-07-12T12:29:32.300Z,100680.34
2018-07-12T12:32:00.665Z,100681.01
2018-07-12T12:34:29.025Z,100688.64
2018-07-12T12:36:58.289Z,100679.69
2018-07-12T12:39:26.636Z,100684.50
2018-07-12T12:41:56.036Z,100688.47
2018-07-12T12:44:24.353Z,100691.95
2018-07-12T12:46:53.589Z,100698.88
2018-07-12T12:49:21.950Z,100707.13
2018-07-12T12:51:51.178Z,100697.91
2018-07-12T12:54:19.541Z,100705.54
2018-07-12T12:56:48.757Z,100697.24
2018-07-12T12:59:17.119Z,100699.80
2018-07-12T13:01:46.494Z,100698.27
2018-07-12T13:04:14.845Z,100704.26
2018-07-12T13:06:43.185Z,100705.58
2018-07-12T13:09:12.486Z,100706.42
2018-07-12T13:11:41.886Z,100703.62
2018-07-12T13:14:11.122Z,100711.25
2018-07-12T13:16:40.376Z,100712.55
2018-07-12T13:19:09.662Z,100722.63
2018-07-12T13:21:38.867Z,100719.48
2018-07-12T13:24:07.237Z,100715.52
2018-07-12T13:26:37.682Z,100724.08
2018-07-12T13:29:07.281Z,100725.77
2018-07-12T13:31:37.456Z,100730.22
2018-07-12T13:34:06.693Z,100722.77
2018-07-12T13:36:36.192Z,100728.45
2018-07-12T13:39:07.912Z,100725.82
2018-07-12T13:41:37.183Z,100733.11
2018-07-12T13:44:16.901Z,100728.16
2018-07-12T13:46:45.781Z,100721.70
2018-07-12T13:49:15.141Z,100740.51
2018-07-12T13:51:43.958Z,100731.41
2018-07-12T13:54:13.297Z,100734.86
2018-07-12T13:56:42.438Z,100741.59
2018-07-12T13:59:11.809Z,100743.41
2018-07-12T14:01:40.171Z,100738.13
2018-07-12T14:04:10.288Z,100738.29
2018-07-12T14:06:38.686Z,100747.21
2018-07-12T14:09:10.122Z,100741.72
2018-07-12T14:11:38.478Z,100747.01
2018-07-12T14:14:07.353Z,100741.81
2018-07-12T14:16:35.998Z,100744.47
2018-07-12T14:19:05.141Z,100745.70
2018-07-12T14:21:33.882Z,100734.80
2018-07-12T14:24:02.861Z,100740.02
2018-07-12T14:26:31.194Z,100734.80
2018-07-12T14:28:59.542Z,100736.91
2018-07-12T14:31:27.886Z,100738.48
2018-07-12T14:33:56.225Z,100730.65
2018-07-12T14:36:24.568Z,100722.98
2018-07-12T14:38:53.782Z,100721.36
2018-07-12T14:41:22.125Z,100725.20
2018-07-12T14:43:51.637Z,100720.34
2018-07-12T14:46:19.987Z,100718.75
2018-07-12T14:48:48.325Z,100724.72
2018-07-12T14:51:16.666Z,100730.67
2018-07-12T14:53:44.994Z,100730.42
2018-07-12T14:56:14.365Z,100726.16
2018-07-12T14:58:42.698Z,100731.98
2018-07-12T15:01:11.061Z,100725.70
2018-07-12T15:03:39.400Z,100729.20
2018-07-12T15:06:07.729Z,100726.23
2018-07-12T15:08:36.065Z,100728.17
2018-07-12T15:11:05.523Z,100732.07
2018-07-12T15:13:35.002Z,100729.20
2018-07-12T15:16:04.005Z,100729.05
2018-07-12T15:18:32.403Z,100729.91
2018-07-12T15:21:01.870Z,100739.92
2018-07-12T15:23:30.255Z,100739.94
2018-07-12T15:25:58.777Z,100747.88
2018-07-12T15:28:27.089Z,100756.84
2018-07-12T15:30:55.421Z,100755.49
2018-07-12T15:33:23.766Z,100753.15
2018-07-12T15:35:52.101Z,100757.27
2018-07-12T15:38:20.423Z,100757.17
2018-07-12T15:40:49.829Z,100756.42
2018-07-12T15:43:18.178Z,100752.34
2018-07-12T15:45:46.535Z,100751.62
2018-07-12T15:48:14.883Z,100751.19
2018-07-12T15:50:43.217Z,100747.38
2018-07-12T15:53:14.448Z,100745.92
2018-07-12T15:55:42.797Z,100747.38
2018-07-12T15:58:12.048Z,100749.70
2018-07-12T16:00:41.268Z,100749.34
2018-07-12T16:03:10.483Z,100747.38
2018-07-12T16:05:38.826Z,100746.69
2018-07-12T16:08:08.078Z,100748.45
2018-07-12T16:10:36.425Z,100745.34
2018-07-12T16:13:07.071Z,100746.27
2018-07-12T16:15:37.549Z,100747.58
2018-07-12T16:18:06.877Z,100743.41
2018-07-12T16:20:36.133Z,100742.51
2018-07-12T16:23:05.553Z,100734.39
2018-07-12T16:25:35.469Z,100740.84
2018-07-12T16:28:06.061Z,100736.19
2018-07-12T16:30:36.142Z,100738.20
2018-07-12T16:33:05.658Z,100749.14
2018-07-12T16:35:36.041Z,100748.53
2018-07-12T16:38:06.820Z,100748.42
2018-07-12T16:40:36.139Z,100758.34
2018-07-12T16:43:06.927Z,100763.03
2018-07-12T16:45:36.258Z,100763.76
2018-07-12T16:48:06.982Z,100765.38
2018-07-12T16:50:36.961Z,100765.84
2018-07-12T16:53:06.362Z,100769.62
2018-07-12T16:55:34.816Z,100770.50
2018-07-12T16:58:04.078Z,100765.84
2018-07-12T17:00:35.825Z,100759.98
2018-07-12T17:03:05.020Z,100763.41
2018-07-12T17:05:35.469Z,100760.97
2018-07-12T17:08:04.734Z,100754.92
2018-07-12T17:10:35.142Z,100765.74
2018-07-12T17:13:05.549Z,100760.82
2018-07-12T17:15:35.494Z,100767.33
2018-07-12T17:18:06.093Z,100766.44
2018-07-12T17:20:36.973Z,100769.02
2018-07-12T17:23:07.058Z,100768.25
2018-07-12T17:25:37.722Z,100770.41
2018-07-12T17:28:06.193Z,100770.34
2018-07-12T17:30:35.837Z,100784.50
2018-07-12T17:33:05.457Z,100784.50
2018-07-12T17:35:34.428Z,100786.31
2018-07-12T17:38:03.957Z,100786.34
2018-07-12T17:40:34.711Z,100792.93
2018-07-12T17:43:03.970Z,100789.91
2018-07-12T17:45:34.929Z,100790.88
2018-07-12T17:48:04.619Z,100787.91
2018-07-12T17:50:34.189Z,100795.87
2018-07-12T17:53:03.239Z,100794.27
2018-07-12T17:55:31.702Z,100799.52
2018-07-12T17:58:00.950Z,100803.98
2018-07-12T18:00:30.166Z,100800.83
2018-07-12T18:02:59.413Z,100803.48
2018-07-12T18:05:27.998Z,100799.80
2018-07-12T18:07:56.353Z,100804.44
2018-07-12T18:10:24.801Z,100809.89
2018-07-12T18:12:53.153Z,100813.96
2018-07-12T18:15:21.512Z,100810.03
2018-07-12T18:17:49.934Z,100815.64
2018-07-12T18:20:18.277Z,100825.89
2018-07-12T18:22:46.617Z,100821.34
2018-07-12T18:25:14.966Z,100821.60
2018-07-12T18:27:43.305Z,100831.17
2018-07-12T18:30:11.655Z,100820.14
2018-07-12T18:32:40.173Z,100822.38
2018-07-12T18:35:08.519Z,100825.20
2018-07-12T18:37:37.151Z,100829.95
2018-07-12T18:40:06.609Z,100826.44
2018-07-12T18:42:35.915Z,100827.41
2018-07-12T18:45:05.645Z,100833.37
2018-07-12T18:47:36.069Z,100833.92
2018-07-12T18:50:05.749Z,100828.77
2018-07-12T18:52:36.080Z,100832.44
2018-07-12T18:55:06.864Z,100830.50
2018-07-12T18:57:36.205Z,100835.78
2018-07-12T19:00:05.580Z,100840.48
2018-07-12T19:02:36.290Z,100847.36
2018-07-12T19:05:07.555Z,100849.84
2018-07-12T19:07:42.127Z,100852.94
2018-07-12T19:10:10.622Z,100858.90
2018-07-12T19:12:39.005Z,100861.34
2018-07-12T19:15:08.421Z,100869.76
2018-07-12T19:17:36.781Z,100868.76
2018-07-12T19:20:06.976Z,100872.14
2018-07-12T19:22:35.902Z,100873.70
2018-07-12T19:25:05.102Z,100882.40
2018-07-12T19:27:35.117Z,100886.66
2018-07-12T19:30:05.166Z,100890.62
2018-07-12T19:32:35.500Z,100894.52
2018-07-12T19:35:04.778Z,100902.44
2018-07-12T19:37:34.088Z,100900.73
2018-07-12T19:40:03.157Z,100898.48
2018-07-12T19:42:31.607Z,100901.33
2018-07-12T19:44:59.966Z,100906.86
2018-07-12T19:47:28.324Z,100902.31
2018-07-12T19:49:56.674Z,100900.80
2018-07-12T19:52:25.102Z,100902.08
2018-07-12T19:54:53.469Z,100907.73
2018-07-12T19:57:21.817Z,100902.80
2018-07-12T19:59:51.009Z,100908.67
2018-07-12T20:02:20.253Z,100911.08
2018-07-12T20:04:49.613Z,100907.87
2018-07-12T20:07:17.968Z,100908.00
2018-07-12T20:09:46.396Z,100907.16
2018-07-12T20:12:14.734Z,100908.59
2018-07-12T20:14:43.090Z,100907.12
2018-07-12T20:17:11.457Z,100910.20
2018-07-12T20:19:39.806Z,100902.95
2018-07-12T20:22:08.169Z,100898.84
2018-07-12T20:24:36.531Z,100903.75
2018-07-12T20:27:06.014Z,100906.19
2018-07-12T20:29:35.311Z,100906.83
2018-07-12T20:32:06.278Z,100910.92
2018-07-12T20:34:35.927Z,100911.75
2018-07-12T20:37:04.981Z,100907.11
2018-07-12T20:39:34.279Z,100911.71
2018-07-12T20:42:03.651Z,100911.84
2018-07-12T20:44:32.073Z,100915.31
2018-07-12T20:47:00.438Z,100912.52
2018-07-12T20:49:28.789Z,100923.16
2018-07-12T20:51:57.128Z,100926.28
2018-07-12T20:54:25.499Z,100922.95
2018-07-12T20:56:53.865Z,100920.39
2018-07-12T20:59:22.209Z,100922.98
2018-07-12T21:01:50.559Z,100923.70
2018-07-12T21:04:18.916Z,100934.62
2018-07-12T21:06:47.385Z,100935.89
2018-07-12T21:09:15.725Z,100934.21
2018-07-12T21:11:44.096Z,100938.67
2018-07-12T21:14:12.449Z,100936.57
2018-07-12T21:16:40.801Z,100946.72
2018-07-12T21:19:10.055Z,100943.40
2018-07-12T21:21:39.313Z,100947.16
2018-07-12T21:24:07.656Z,100941.72
2018-07-12T21:26:36.009Z,100946.67
2018-07-12T21:29:05.261Z,100942.41
2018-07-12T21:31:34.574Z,100943.72
2018-07-12T21:34:03.519Z,100940.77
2018-07-12T21:36:31.873Z,100946.72
2018-07-12T21:39:00.429Z,100936.52
2018-07-12T21:41:28.777Z,100943.91
2018-07-12T21:43:57.118Z,100956.06
2018-07-12T21:46:25.463Z,100954.75
2018-07-12T21:48:53.812Z,100948.50
2018-07-12T21:51:22.173Z,100958.20
2018-07-12T21:53:50.499Z,100953.51
2018-07-12T21:56:19.789Z,100958.69
2018-07-12T21:58:48.132Z,100965.16
2018-07-12T22:01:16.570Z,100966.58
2018-07-12T22:03:45.797Z,100964.50
2018-07-12T22:06:16.317Z,100962.44
2018-07-12T22:08:44.667Z,100967.62
2018-07-12T22:11:13.103Z,100963.94
2018-07-12T22:13:42.486Z,100965.02
2018-07-12T22:16:11.290Z,100966.17
2018-07-12T22:18:39.657Z,100965.90
2018-07-12T22:21:08.021Z,100961.73
2018-07-12T22:23:36.454Z,100972.78
2018-07-12T22:26:05.861Z,100970.62
2018-07-12T22:28:35.365Z,100970.45
2018-07-12T22:31:04.281Z,100967.62
2018-07-12T22:33:33.182Z,100970.69
2018-07-12T22:36:01.518Z,100965.84
2018-07-12T22:38:29.881Z,100965.68
2018-07-12T22:40:58.224Z,100963.12
2018-07-12T22:43:26.584Z,100965.03
2018-07-12T22:45:54.945Z,100961.98
2018-07-12T22:48:23.417Z,100972.14
2018-07-12T22:50:51.709Z,100965.97
2018-07-12T22:53:20.222Z,100967.24
2018-07-12T22:55:48.590Z,100965.39
2018-07-12T22:58:16.947Z,100964.70
2018-07-12T23:00:45.292Z,100973.59
2018-07-12T23:03:13.636Z,100970.31
2018-07-12T23:05:42.105Z,100964.19
2018-07-12T23:08:10.637Z,100969.88
2018-07-12T23:10:38.988Z,100962.12
2018-07-12T23:13:08.341Z,100957.52
2018-07-12T23:15:37.613Z,100957.56
2018-07-12T23:18:06.082Z,100957.29
2018-07-12T23:20:36.211Z,100962.09
2018-07-12T23:23:06.417Z,100960.97
2018-07-12T23:25:37.160Z,100954.06
2018-07-12T23:28:06.393Z,100959.66
2018-07-12T23:30:37.137Z,100961.25
2018-07-12T23:33:06.467Z,100962.84
2018-07-12T23:35:35.850Z,100963.84
2018-07-12T23:38:05.207Z,100959.12
2018-07-12T23:40:35.546Z,100956.86
2018-07-12T23:43:04.257Z,100952.11
2018-07-12T23:45:33.385Z,100956.15
2018-07-12T23:48:03.305Z,100956.48
2018-07-12T23:50:33.195Z,100962.44
2018-07-12T23:53:01.555Z,100955.94
2018-07-12T23:55:31.039Z,100954.20
2018-07-12T23:57:59.407Z,100953.84
